Portada
METAR-TAF:

METAR-TAF

Aeroports :

Whyalla, Austràlia

latitud: 33-03-32S, longitud: 137-30-52E, altitud: 12 m

Observació

L'informe es va fer fa 43 minuts, a les 16:00 UTC
Vent 16 kt del Oest/Sud-Oest
Temperatura 12°C
Humitat 82%
Pressió 1010 hPa
Visibilitat 10 km o més
Núvols disperses a una alçada de 2900 ft
Núvols disperses a una alçada de 3500 ft
Cel ennuvolat a una alçada de 4000 ft

METAR: YWHA 131600Z AUTO 24016KT 9999 // SCT029 SCT035 BKN040 12/09 Q1010

Hora: 03:13 (16:43 UTC)


TAF: manca

Observacions i pronòstics meteorològics de més de 4000 aeroports (METAR i TAF).

Les estacions disponibles són els punts grocs i vermells al mapa.

Posi el ratolí al punt desitjat per veure el nom de l'estació.

Feu clic per veure les observacions i els pronòstics meteorològics.

Per canviar el mapa: feu clic els botons verds amb una creu de color negre per apropar; al botó verd amb un guió per allunyar la imatge; o en les fletxes verdes per a mapes adjacents.


METAR-TAF: